sensor_id;sensor_type;location;lat;lon;timestamp;temperature;humidity
31129;DHT22;17777;48.770;8.944;2024-01-30T00:02:06;9.10;48.40
31129;DHT22;17777;48.770;8.944;2024-01-30T00:04:32;9.10;48.40
31129;DHT22;17777;48.770;8.944;2024-01-30T00:06:58;9.10;48.50
31129;DHT22;17777;48.770;8.944;2024-01-30T00:09:23;9.20;48.70
31129;DHT22;17777;48.770;8.944;2024-01-30T00:11:49;9.10;48.80
31129;DHT22;17777;48.770;8.944;2024-01-30T00:14:15;9.10;48.80
31129;DHT22;17777;48.770;8.944;2024-01-30T00:16:41;9.10;48.70
31129;DHT22;17777;48.770;8.944;2024-01-30T00:19:07;9.10;48.80
31129;DHT22;17777;48.770;8.944;2024-01-30T00:21:33;9.10;48.90
31129;DHT22;17777;48.770;8.944;2024-01-30T00:23:59;9.10;48.90
31129;DHT22;17777;48.770;8.944;2024-01-30T00:26:25;9.10;49.00
31129;DHT22;17777;48.770;8.944;2024-01-30T00:28:51;9.00;49.00
31129;DHT22;17777;48.770;8.944;2024-01-30T00:31:17;9.00;49.10
31129;DHT22;17777;48.770;8.944;2024-01-30T00:33:43;9.00;49.50
31129;DHT22;17777;48.770;8.944;2024-01-30T00:36:09;9.00;49.30
31129;DHT22;17777;48.770;8.944;2024-01-30T00:38:36;9.00;49.40
31129;DHT22;17777;48.770;8.944;2024-01-30T00:41:03;9.00;49.40
31129;DHT22;17777;48.770;8.944;2024-01-30T00:43:28;9.00;49.40
31129;DHT22;17777;48.770;8.944;2024-01-30T00:45:55;9.00;49.40
31129;DHT22;17777;48.770;8.944;2024-01-30T00:48:21;9.00;49.40
31129;DHT22;17777;48.770;8.944;2024-01-30T00:50:46;9.00;49.40
31129;DHT22;17777;48.770;8.944;2024-01-30T00:53:12;9.00;49.40
31129;DHT22;17777;48.770;8.944;2024-01-30T00:55:38;9.00;49.30
31129;DHT22;17777;48.770;8.944;2024-01-30T00:58:04;9.10;49.30
31129;DHT22;17777;48.770;8.944;2024-01-30T01:00:30;9.10;49.40
31129;DHT22;17777;48.770;8.944;2024-01-30T01:02:58;9.10;49.20
31129;DHT22;17777;48.770;8.944;2024-01-30T01:05:25;9.10;49.20
31129;DHT22;17777;48.770;8.944;2024-01-30T01:07:51;9.10;49.20
31129;DHT22;17777;48.770;8.944;2024-01-30T01:10:17;9.10;49.20
31129;DHT22;17777;48.770;8.944;2024-01-30T01:12:44;9.10;49.70
31129;DHT22;17777;48.770;8.944;2024-01-30T01:15:10;9.10;49.00
31129;DHT22;17777;48.770;8.944;2024-01-30T01:17:37;9.10;49.00
31129;DHT22;17777;48.770;8.944;2024-01-30T01:20:05;9.10;49.00
31129;DHT22;17777;48.770;8.944;2024-01-30T01:22:32;9.10;49.20
31129;DHT22;17777;48.770;8.944;2024-01-30T01:24:59;9.10;49.10
31129;DHT22;17777;48.770;8.944;2024-01-30T01:27:25;9.10;49.20
31129;DHT22;17777;48.770;8.944;2024-01-30T01:29:52;9.00;49.20
31129;DHT22;17777;48.770;8.944;2024-01-30T01:32:18;8.90;49.80
31129;DHT22;17777;48.770;8.944;2024-01-30T01:34:44;8.90;49.30
31129;DHT22;17777;48.770;8.944;2024-01-30T01:37:10;8.90;49.40
31129;DHT22;17777;48.770;8.944;2024-01-30T01:39:36;8.80;49.40
31129;DHT22;17777;48.770;8.944;2024-01-30T01:42:02;8.90;49.60
31129;DHT22;17777;48.770;8.944;2024-01-30T01:44:28;8.80;49.50
31129;DHT22;17777;48.770;8.944;2024-01-30T01:46:54;8.90;49.50
31129;DHT22;17777;48.770;8.944;2024-01-30T01:49:22;8.80;49.50
31129;DHT22;17777;48.770;8.944;2024-01-30T01:51:51;8.80;49.50
31129;DHT22;17777;48.770;8.944;2024-01-30T01:54:19;8.80;49.50
31129;DHT22;17777;48.770;8.944;2024-01-30T01:56:46;8.80;49.50
31129;DHT22;17777;48.770;8.944;2024-01-30T01:59:12;8.80;50.00
31129;DHT22;17777;48.770;8.944;2024-01-30T02:01:38;8.80;49.40
31129;DHT22;17777;48.770;8.944;2024-01-30T02:04:07;8.80;49.40
31129;DHT22;17777;48.770;8.944;2024-01-30T02:06:34;8.80;49.40
31129;DHT22;17777;48.770;8.944;2024-01-30T02:09:00;8.80;49.40
31129;DHT22;17777;48.770;8.944;2024-01-30T02:11:26;8.70;49.40
31129;DHT22;17777;48.770;8.944;2024-01-30T02:13:53;8.70;49.40
31129;DHT22;17777;48.770;8.944;2024-01-30T02:22:10;8.40;49.90
31129;DHT22;17777;48.770;8.944;2024-01-30T02:24:36;8.40;49.60
31129;DHT22;17777;48.770;8.944;2024-01-30T02:27:01;8.40;49.60
31129;DHT22;17777;48.770;8.944;2024-01-30T02:29:28;8.40;49.70
31129;DHT22;17777;48.770;8.944;2024-01-30T02:31:53;8.40;49.70
31129;DHT22;17777;48.770;8.944;2024-01-30T02:34:19;8.40;49.80
31129;DHT22;17777;48.770;8.944;2024-01-30T02:39:11;8.40;50.20
31129;DHT22;17777;48.770;8.944;2024-01-30T02:41:37;8.40;49.80
31129;DHT22;17777;48.770;8.944;2024-01-30T02:44:05;8.40;49.80
31129;DHT22;17777;48.770;8.944;2024-01-30T02:46:31;8.40;49.80
31129;DHT22;17777;48.770;8.944;2024-01-30T02:48:57;8.40;49.70
31129;DHT22;17777;48.770;8.944;2024-01-30T02:51:23;8.40;49.80
31129;DHT22;17777;48.770;8.944;2024-01-30T02:53:49;8.40;49.80
31129;DHT22;17777;48.770;8.944;2024-01-30T02:56:14;8.40;49.90
31129;DHT22;17777;48.770;8.944;2024-01-30T02:58:40;8.40;49.90
31129;DHT22;17777;48.770;8.944;2024-01-30T03:01:07;8.40;50.00
31129;DHT22;17777;48.770;8.944;2024-01-30T03:03:33;8.40;50.00
31129;DHT22;17777;48.770;8.944;2024-01-30T03:06:00;8.40;50.00
31129;DHT22;17777;48.770;8.944;2024-01-30T03:08:27;8.30;50.00
31129;DHT22;17777;48.770;8.944;2024-01-30T03:10:53;8.30;50.00
31129;DHT22;17777;48.770;8.944;2024-01-30T03:13:19;8.30;50.10
31129;DHT22;17777;48.770;8.944;2024-01-30T03:15:45;8.30;50.10
31129;DHT22;17777;48.770;8.944;2024-01-30T03:18:10;8.30;50.00
31129;DHT22;17777;48.770;8.944;2024-01-30T03:20:36;8.30;50.00
31129;DHT22;17777;48.770;8.944;2024-01-30T03:23:02;8.40;50.00
31129;DHT22;17777;48.770;8.944;2024-01-30T03:25:28;8.30;50.00
31129;DHT22;17777;48.770;8.944;2024-01-30T03:27:54;8.30;50.50
31129;DHT22;17777;48.770;8.944;2024-01-30T03:30:20;8.30;50.00
31129;DHT22;17777;48.770;8.944;2024-01-30T03:32:45;8.30;50.00
31129;DHT22;17777;48.770;8.944;2024-01-30T03:35:12;8.30;49.90
31129;DHT22;17777;48.770;8.944;2024-01-30T03:37:37;8.30;49.90
31129;DHT22;17777;48.770;8.944;2024-01-30T03:40:04;8.40;49.90
31129;DHT22;17777;48.770;8.944;2024-01-30T03:42:30;8.30;49.90
31129;DHT22;17777;48.770;8.944;2024-01-30T03:44:56;8.30;49.90
31129;DHT22;17777;48.770;8.944;2024-01-30T03:47:22;8.30;49.90
31129;DHT22;17777;48.770;8.944;2024-01-30T03:49:48;8.30;50.00
31129;DHT22;17777;48.770;8.944;2024-01-30T03:52:13;8.30;50.00
31129;DHT22;17777;48.770;8.944;2024-01-30T03:54:39;8.30;50.00
31129;DHT22;17777;48.770;8.944;2024-01-30T03:57:05;8.20;50.00
31129;DHT22;17777;48.770;8.944;2024-01-30T03:59:31;8.30;50.00
31129;DHT22;17777;48.770;8.944;2024-01-30T04:01:56;8.20;50.00
31129;DHT22;17777;48.770;8.944;2024-01-30T04:04:22;8.20;50.10
31129;DHT22;17777;48.770;8.944;2024-01-30T04:06:48;8.20;50.10
31129;DHT22;17777;48.770;8.944;2024-01-30T04:09:14;8.20;50.20
31129;DHT22;17777;48.770;8.944;2024-01-30T04:11:40;8.20;50.20
31129;DHT22;17777;48.770;8.944;2024-01-30T04:14:08;8.10;50.20
31129;DHT22;17777;48.770;8.944;2024-01-30T04:16:34;8.10;50.30
31129;DHT22;17777;48.770;8.944;2024-01-30T04:18:59;8.10;50.40
31129;DHT22;17777;48.770;8.944;2024-01-30T04:21:25;8.00;50.40
31129;DHT22;17777;48.770;8.944;2024-01-30T04:23:51;8.00;50.40
31129;DHT22;17777;48.770;8.944;2024-01-30T04:26:17;8.00;50.30
31129;DHT22;17777;48.770;8.944;2024-01-30T04:28:45;8.00;50.20
31129;DHT22;17777;48.770;8.944;2024-01-30T04:31:11;8.00;50.20
31129;DHT22;17777;48.770;8.944;2024-01-30T04:33:37;8.00;50.20
31129;DHT22;17777;48.770;8.944;2024-01-30T04:36:03;8.00;50.10
31129;DHT22;17777;48.770;8.944;2024-01-30T04:38:34;8.00;50.20
31129;DHT22;17777;48.770;8.944;2024-01-30T04:41:00;8.00;50.30
31129;DHT22;17777;48.770;8.944;2024-01-30T04:43:25;8.00;50.20
31129;DHT22;17777;48.770;8.944;2024-01-30T04:45:51;8.00;50.30
31129;DHT22;17777;48.770;8.944;2024-01-30T04:48:17;8.00;50.40
31129;DHT22;17777;48.770;8.944;2024-01-30T04:50:43;7.90;50.40
31129;DHT22;17777;48.770;8.944;2024-01-30T04:53:09;7.90;50.40
31129;DHT22;17777;48.770;8.944;2024-01-30T04:55:35;7.80;50.40
31129;DHT22;17777;48.770;8.944;2024-01-30T04:58:02;7.80;50.60
31129;DHT22;17777;48.770;8.944;2024-01-30T05:00:27;7.70;50.70
31129;DHT22;17777;48.770;8.944;2024-01-30T05:02:55;7.80;50.70
31129;DHT22;17777;48.770;8.944;2024-01-30T05:05:21;7.80;50.90
31129;DHT22;17777;48.770;8.944;2024-01-30T05:07:47;7.80;50.80
31129;DHT22;17777;48.770;8.944;2024-01-30T05:10:13;7.80;50.70
31129;DHT22;17777;48.770;8.944;2024-01-30T05:12:40;7.80;50.70
31129;DHT22;17777;48.770;8.944;2024-01-30T05:15:06;7.80;50.60
31129;DHT22;17777;48.770;8.944;2024-01-30T05:17:32;7.80;50.60
31129;DHT22;17777;48.770;8.944;2024-01-30T05:19:58;7.80;50.60
31129;DHT22;17777;48.770;8.944;2024-01-30T05:22:24;7.90;50.70
31129;DHT22;17777;48.770;8.944;2024-01-30T05:24:50;7.80;50.80
31129;DHT22;17777;48.770;8.944;2024-01-30T05:27:16;7.80;50.90
31129;DHT22;17777;48.770;8.944;2024-01-30T05:29:42;7.80;50.70
31129;DHT22;17777;48.770;8.944;2024-01-30T05:32:07;7.80;50.90
31129;DHT22;17777;48.770;8.944;2024-01-30T05:34:34;7.80;50.80
31129;DHT22;17777;48.770;8.944;2024-01-30T05:37:01;7.70;50.70
31129;DHT22;17777;48.770;8.944;2024-01-30T05:39:27;7.70;50.70
31129;DHT22;17777;48.770;8.944;2024-01-30T05:41:53;7.70;50.80
31129;DHT22;17777;48.770;8.944;2024-01-30T05:44:19;7.80;50.80
31129;DHT22;17777;48.770;8.944;2024-01-30T05:46:44;7.70;50.70
31129;DHT22;17777;48.770;8.944;2024-01-30T05:49:10;7.80;50.80
31129;DHT22;17777;48.770;8.944;2024-01-30T05:51:36;7.80;51.40
31129;DHT22;17777;48.770;8.944;2024-01-30T05:54:02;7.80;50.80
31129;DHT22;17777;48.770;8.944;2024-01-30T05:56:29;7.80;50.80
31129;DHT22;17777;48.770;8.944;2024-01-30T05:58:55;7.80;50.90
31129;DHT22;17777;48.770;8.944;2024-01-30T06:01:20;7.80;50.90
31129;DHT22;17777;48.770;8.944;2024-01-30T06:03:46;7.80;50.90
31129;DHT22;17777;48.770;8.944;2024-01-30T06:06:12;7.80;50.90
31129;DHT22;17777;48.770;8.944;2024-01-30T06:08:38;7.80;50.80
31129;DHT22;17777;48.770;8.944;2024-01-30T06:11:03;7.80;50.90
31129;DHT22;17777;48.770;8.944;2024-01-30T06:13:29;7.80;51.00
31129;DHT22;17777;48.770;8.944;2024-01-30T06:15:58;7.80;50.90
31129;DHT22;17777;48.770;8.944;2024-01-30T06:18:23;7.80;50.80
31129;DHT22;17777;48.770;8.944;2024-01-30T06:20:49;7.80;50.70
31129;DHT22;17777;48.770;8.944;2024-01-30T06:23:15;7.80;50.70
31129;DHT22;17777;48.770;8.944;2024-01-30T06:25:41;7.90;50.70
31129;DHT22;17777;48.770;8.944;2024-01-30T06:28:07;7.80;50.70
31129;DHT22;17777;48.770;8.944;2024-01-30T06:30:32;7.80;50.70
31129;DHT22;17777;48.770;8.944;2024-01-30T06:32:58;7.80;50.60
31129;DHT22;17777;48.770;8.944;2024-01-30T06:35:24;7.80;50.70
31129;DHT22;17777;48.770;8.944;2024-01-30T06:37:50;7.80;50.70
31129;DHT22;17777;48.770;8.944;2024-01-30T06:40:15;7.80;50.70
31129;DHT22;17777;48.770;8.944;2024-01-30T06:42:41;7.70;50.70
31129;DHT22;17777;48.770;8.944;2024-01-30T06:45:07;7.70;51.00
31129;DHT22;17777;48.770;8.944;2024-01-30T06:47:33;7.70;51.10
31129;DHT22;17777;48.770;8.944;2024-01-30T06:49:59;7.60;51.10
31129;DHT22;17777;48.770;8.944;2024-01-30T06:52:25;7.60;51.10
31129;DHT22;17777;48.770;8.944;2024-01-30T06:54:51;7.60;51.10
31129;DHT22;17777;48.770;8.944;2024-01-30T06:57:16;7.60;51.10
31129;DHT22;17777;48.770;8.944;2024-01-30T06:59:42;7.60;51.10
31129;DHT22;17777;48.770;8.944;2024-01-30T07:02:12;7.60;51.10
31129;DHT22;17777;48.770;8.944;2024-01-30T07:04:38;7.60;51.20
31129;DHT22;17777;48.770;8.944;2024-01-30T07:07:04;7.60;51.30
31129;DHT22;17777;48.770;8.944;2024-01-30T07:09:31;7.60;51.30
31129;DHT22;17777;48.770;8.944;2024-01-30T07:11:57;7.60;51.10
31129;DHT22;17777;48.770;8.944;2024-01-30T07:14:25;7.50;51.10
31129;DHT22;17777;48.770;8.944;2024-01-30T07:16:51;7.50;51.30
31129;DHT22;17777;48.770;8.944;2024-01-30T07:19:17;7.50;51.30
31129;DHT22;17777;48.770;8.944;2024-01-30T07:21:43;7.50;51.50
31129;DHT22;17777;48.770;8.944;2024-01-30T07:24:09;7.50;51.50
31129;DHT22;17777;48.770;8.944;2024-01-30T07:26:35;7.50;51.40
31129;DHT22;17777;48.770;8.944;2024-01-30T07:29:01;7.40;51.50
31129;DHT22;17777;48.770;8.944;2024-01-30T07:31:27;7.40;51.60
31129;DHT22;17777;48.770;8.944;2024-01-30T07:33:52;7.40;51.60
31129;DHT22;17777;48.770;8.944;2024-01-30T07:36:19;7.50;51.60
31129;DHT22;17777;48.770;8.944;2024-01-30T07:38:45;7.50;51.60
31129;DHT22;17777;48.770;8.944;2024-01-30T07:41:11;7.50;51.60
31129;DHT22;17777;48.770;8.944;2024-01-30T07:43:38;7.50;51.60
31129;DHT22;17777;48.770;8.944;2024-01-30T07:46:04;7.50;51.60
31129;DHT22;17777;48.770;8.944;2024-01-30T07:48:32;7.50;51.70
31129;DHT22;17777;48.770;8.944;2024-01-30T07:50:59;7.50;51.70
31129;DHT22;17777;48.770;8.944;2024-01-30T07:53:25;7.50;51.70
31129;DHT22;17777;48.770;8.944;2024-01-30T07:55:51;7.60;51.80
31129;DHT22;17777;48.770;8.944;2024-01-30T07:58:17;7.60;51.80
31129;DHT22;17777;48.770;8.944;2024-01-30T08:00:44;7.60;51.80
31129;DHT22;17777;48.770;8.944;2024-01-30T08:03:10;7.70;51.90
31129;DHT22;17777;48.770;8.944;2024-01-30T08:05:36;7.70;51.80
31129;DHT22;17777;48.770;8.944;2024-01-30T08:08:04;7.80;51.90
31129;DHT22;17777;48.770;8.944;2024-01-30T08:10:30;7.80;51.80
31129;DHT22;17777;48.770;8.944;2024-01-30T08:12:56;7.90;51.90
31129;DHT22;17777;48.770;8.944;2024-01-30T08:15:22;7.90;51.80
31129;DHT22;17777;48.770;8.944;2024-01-30T08:17:47;7.90;52.00
31129;DHT22;17777;48.770;8.944;2024-01-30T08:20:13;8.00;52.00
31129;DHT22;17777;48.770;8.944;2024-01-30T08:22:39;8.00;52.00
31129;DHT22;17777;48.770;8.944;2024-01-30T08:25:08;8.10;52.00
31129;DHT22;17777;48.770;8.944;2024-01-30T08:27:35;8.10;52.00
31129;DHT22;17777;48.770;8.944;2024-01-30T08:30:05;8.10;52.20
31129;DHT22;17777;48.770;8.944;2024-01-30T08:32:31;8.20;52.10
31129;DHT22;17777;48.770;8.944;2024-01-30T08:34:58;8.20;52.00
31129;DHT22;17777;48.770;8.944;2024-01-30T08:37:24;8.20;52.00
31129;DHT22;17777;48.770;8.944;2024-01-30T08:39:50;8.30;52.20
31129;DHT22;17777;48.770;8.944;2024-01-30T08:42:15;8.30;52.10
31129;DHT22;17777;48.770;8.944;2024-01-30T08:47:12;8.40;52.10
31129;DHT22;17777;48.770;8.944;2024-01-30T08:49:38;8.40;52.20
31129;DHT22;17777;48.770;8.944;2024-01-30T08:52:04;8.50;52.20
31129;DHT22;17777;48.770;8.944;2024-01-30T08:54:30;8.50;52.10
31129;DHT22;17777;48.770;8.944;2024-01-30T08:56:56;8.60;52.10
31129;DHT22;17777;48.770;8.944;2024-01-30T08:59:23;8.60;52.80
31129;DHT22;17777;48.770;8.944;2024-01-30T09:01:49;8.70;52.20
31129;DHT22;17777;48.770;8.944;2024-01-30T09:04:19;8.70;53.00
31129;DHT22;17777;48.770;8.944;2024-01-30T09:06:44;8.80;52.40
31129;DHT22;17777;48.770;8.944;2024-01-30T09:09:10;8.80;52.40
31129;DHT22;17777;48.770;8.944;2024-01-30T09:11:36;8.90;52.40
31129;DHT22;17777;48.770;8.944;2024-01-30T09:14:02;9.00;52.40
31129;DHT22;17777;48.770;8.944;2024-01-30T09:16:28;9.10;52.30
31129;DHT22;17777;48.770;8.944;2024-01-30T09:18:54;9.20;52.50
31129;DHT22;17777;48.770;8.944;2024-01-30T09:21:19;9.20;52.30
31129;DHT22;17777;48.770;8.944;2024-01-30T09:23:45;9.30;52.30
31129;DHT22;17777;48.770;8.944;2024-01-30T09:26:11;9.40;52.30
31129;DHT22;17777;48.770;8.944;2024-01-30T09:28:38;9.40;52.20
31129;DHT22;17777;48.770;8.944;2024-01-30T09:31:04;9.50;52.70
31129;DHT22;17777;48.770;8.944;2024-01-30T09:33:29;9.60;52.00
31129;DHT22;17777;48.770;8.944;2024-01-30T09:35:55;9.70;52.10
31129;DHT22;17777;48.770;8.944;2024-01-30T09:38:21;9.70;52.00
31129;DHT22;17777;48.770;8.944;2024-01-30T09:40:54;9.80;52.00
31129;DHT22;17777;48.770;8.944;2024-01-30T09:43:23;9.90;52.00
31129;DHT22;17777;48.770;8.944;2024-01-30T09:45:53;9.90;51.90
31129;DHT22;17777;48.770;8.944;2024-01-30T09:48:19;10.00;52.20
31129;DHT22;17777;48.770;8.944;2024-01-30T09:50:46;10.10;52.00
31129;DHT22;17777;48.770;8.944;2024-01-30T09:53:13;10.10;51.90
31129;DHT22;17777;48.770;8.944;2024-01-30T09:55:42;10.30;51.90
31129;DHT22;17777;48.770;8.944;2024-01-30T09:58:11;10.30;51.80
31129;DHT22;17777;48.770;8.944;2024-01-30T10:00:37;10.40;51.80
31129;DHT22;17777;48.770;8.944;2024-01-30T10:03:03;10.40;51.60
31129;DHT22;17777;48.770;8.944;2024-01-30T10:05:31;10.50;51.60
31129;DHT22;17777;48.770;8.944;2024-01-30T10:07:59;10.50;51.50
31129;DHT22;17777;48.770;8.944;2024-01-30T10:10:25;10.50;51.50
31129;DHT22;17777;48.770;8.944;2024-01-30T10:12:51;10.60;51.50
31129;DHT22;17777;48.770;8.944;2024-01-30T10:15:18;10.60;52.10
31129;DHT22;17777;48.770;8.944;2024-01-30T10:17:45;10.70;51.40
31129;DHT22;17777;48.770;8.944;2024-01-30T10:20:12;10.70;51.40
31129;DHT22;17777;48.770;8.944;2024-01-30T10:22:39;10.80;51.30
31129;DHT22;17777;48.770;8.944;2024-01-30T10:25:06;10.80;51.40
31129;DHT22;17777;48.770;8.944;2024-01-30T10:27:33;10.90;51.30
31129;DHT22;17777;48.770;8.944;2024-01-30T10:29:59;10.90;51.20
31129;DHT22;17777;48.770;8.944;2024-01-30T10:32:27;11.00;51.20
31129;DHT22;17777;48.770;8.944;2024-01-30T10:34:53;11.10;51.20
31129;DHT22;17777;48.770;8.944;2024-01-30T10:37:19;11.10;51.10
31129;DHT22;17777;48.770;8.944;2024-01-30T10:39:47;11.10;51.10
31129;DHT22;17777;48.770;8.944;2024-01-30T10:42:19;11.20;51.10
31129;DHT22;17777;48.770;8.944;2024-01-30T10:45:13;11.30;51.10
31129;DHT22;17777;48.770;8.944;2024-01-30T10:47:49;11.30;51.10
31129;DHT22;17777;48.770;8.944;2024-01-30T10:50:16;11.40;51.00
31129;DHT22;17777;48.770;8.944;2024-01-30T10:52:42;11.50;51.00
31129;DHT22;17777;48.770;8.944;2024-01-30T10:55:09;11.50;50.90
31129;DHT22;17777;48.770;8.944;2024-01-30T10:57:36;11.60;50.90
31129;DHT22;17777;48.770;8.944;2024-01-30T11:00:08;11.70;50.90
31129;DHT22;17777;48.770;8.944;2024-01-30T11:02:45;11.80;50.80
31129;DHT22;17777;48.770;8.944;2024-01-30T11:05:12;11.80;50.70
31129;DHT22;17777;48.770;8.944;2024-01-30T11:07:39;11.90;50.70
31129;DHT22;17777;48.770;8.944;2024-01-30T11:10:08;12.00;50.70
31129;DHT22;17777;48.770;8.944;2024-01-30T11:12:39;12.00;50.60
31129;DHT22;17777;48.770;8.944;2024-01-30T11:15:12;12.10;50.60
31129;DHT22;17777;48.770;8.944;2024-01-30T11:20:29;12.20;50.60
31129;DHT22;17777;48.770;8.944;2024-01-30T11:22:59;12.30;50.60
31129;DHT22;17777;48.770;8.944;2024-01-30T11:25:27;12.40;50.50
31129;DHT22;17777;48.770;8.944;2024-01-30T11:27:54;12.40;50.40
31129;DHT22;17777;48.770;8.944;2024-01-30T11:30:29;12.50;50.30
31129;DHT22;17777;48.770;8.944;2024-01-30T11:33:06;12.60;50.50
31129;DHT22;17777;48.770;8.944;2024-01-30T11:35:38;12.60;50.30
31129;DHT22;17777;48.770;8.944;2024-01-30T11:38:06;12.70;50.20
31129;DHT22;17777;48.770;8.944;2024-01-30T11:40:35;12.70;50.10
31129;DHT22;17777;48.770;8.944;2024-01-30T11:43:05;12.80;50.10
31129;DHT22;17777;48.770;8.944;2024-01-30T11:45:32;12.80;50.00
31129;DHT22;17777;48.770;8.944;2024-01-30T11:47:59;12.90;50.00
31129;DHT22;17777;48.770;8.944;2024-01-30T11:50:30;13.00;50.60
31129;DHT22;17777;48.770;8.944;2024-01-30T11:52:56;13.10;50.00
31129;DHT22;17777;48.770;8.944;2024-01-30T11:55:23;13.10;49.90
31129;DHT22;17777;48.770;8.944;2024-01-30T11:57:49;13.10;49.80
31129;DHT22;17777;48.770;8.944;2024-01-30T12:00:17;13.20;49.80
31129;DHT22;17777;48.770;8.944;2024-01-30T12:02:48;13.30;49.90
31129;DHT22;17777;48.770;8.944;2024-01-30T12:05:15;13.30;49.80
31129;DHT22;17777;48.770;8.944;2024-01-30T12:07:44;13.40;49.80
31129;DHT22;17777;48.770;8.944;2024-01-30T12:10:12;13.50;49.80
31129;DHT22;17777;48.770;8.944;2024-01-30T12:12:40;13.50;49.80
31129;DHT22;17777;48.770;8.944;2024-01-30T12:15:08;13.60;49.80
31129;DHT22;17777;48.770;8.944;2024-01-30T12:17:34;13.60;49.80
31129;DHT22;17777;48.770;8.944;2024-01-30T12:20:14;13.70;49.80
31129;DHT22;17777;48.770;8.944;2024-01-30T12:22:44;13.70;49.80
31129;DHT22;17777;48.770;8.944;2024-01-30T12:25:12;13.80;49.80
31129;DHT22;17777;48.770;8.944;2024-01-30T12:27:44;13.90;49.80
31129;DHT22;17777;48.770;8.944;2024-01-30T12:30:17;14.00;50.00
31129;DHT22;17777;48.770;8.944;2024-01-30T12:32:45;14.00;49.90
31129;DHT22;17777;48.770;8.944;2024-01-30T12:35:14;14.10;50.00
31129;DHT22;17777;48.770;8.944;2024-01-30T12:37:42;14.20;50.00
31129;DHT22;17777;48.770;8.944;2024-01-30T12:40:09;14.30;50.00
31129;DHT22;17777;48.770;8.944;2024-01-30T12:42:37;14.40;49.80
31129;DHT22;17777;48.770;8.944;2024-01-30T12:45:03;14.50;49.60
31129;DHT22;17777;48.770;8.944;2024-01-30T12:47:30;14.50;49.50
31129;DHT22;17777;48.770;8.944;2024-01-30T12:49:56;14.60;49.40
31129;DHT22;17777;48.770;8.944;2024-01-30T12:52:22;14.70;49.50
31129;DHT22;17777;48.770;8.944;2024-01-30T12:54:49;14.80;49.40
31129;DHT22;17777;48.770;8.944;2024-01-30T12:57:15;14.90;49.20
31129;DHT22;17777;48.770;8.944;2024-01-30T12:59:42;15.00;49.10
31129;DHT22;17777;48.770;8.944;2024-01-30T13:02:08;15.10;49.00
31129;DHT22;17777;48.770;8.944;2024-01-30T13:04:35;15.20;48.80
31129;DHT22;17777;48.770;8.944;2024-01-30T13:07:01;15.30;48.70
31129;DHT22;17777;48.770;8.944;2024-01-30T13:09:27;15.40;48.60
31129;DHT22;17777;48.770;8.944;2024-01-30T13:11:53;15.50;48.30
31129;DHT22;17777;48.770;8.944;2024-01-30T13:14:19;15.50;48.30
31129;DHT22;17777;48.770;8.944;2024-01-30T13:16:45;15.60;48.10
31129;DHT22;17777;48.770;8.944;2024-01-30T13:19:11;15.70;48.10
31129;DHT22;17777;48.770;8.944;2024-01-30T13:21:37;15.70;48.50
31129;DHT22;17777;48.770;8.944;2024-01-30T13:24:03;15.80;47.90
31129;DHT22;17777;48.770;8.944;2024-01-30T13:26:31;15.90;47.80
31129;DHT22;17777;48.770;8.944;2024-01-30T13:28:57;16.00;47.60
31129;DHT22;17777;48.770;8.944;2024-01-30T13:31:23;16.10;47.50
31129;DHT22;17777;48.770;8.944;2024-01-30T13:33:49;16.10;47.40
31129;DHT22;17777;48.770;8.944;2024-01-30T13:36:15;16.20;47.20
31129;DHT22;17777;48.770;8.944;2024-01-30T13:38:41;16.30;46.90
31129;DHT22;17777;48.770;8.944;2024-01-30T13:41:07;16.30;46.70
31129;DHT22;17777;48.770;8.944;2024-01-30T13:43:33;16.30;46.60
31129;DHT22;17777;48.770;8.944;2024-01-30T13:45:59;16.40;46.40
31129;DHT22;17777;48.770;8.944;2024-01-30T13:48:25;16.50;46.10
31129;DHT22;17777;48.770;8.944;2024-01-30T13:50:51;16.50;46.40
31129;DHT22;17777;48.770;8.944;2024-01-30T13:53:16;16.50;46.40
31129;DHT22;17777;48.770;8.944;2024-01-30T13:55:43;16.50;46.50
31129;DHT22;17777;48.770;8.944;2024-01-30T13:58:08;16.60;46.60
31129;DHT22;17777;48.770;8.944;2024-01-30T14:00:34;16.60;46.50
31129;DHT22;17777;48.770;8.944;2024-01-30T14:03:00;16.70;46.40
31129;DHT22;17777;48.770;8.944;2024-01-30T14:05:26;16.60;46.60
31129;DHT22;17777;48.770;8.944;2024-01-30T14:07:56;16.70;46.50
31129;DHT22;17777;48.770;8.944;2024-01-30T14:10:23;16.70;46.40
31129;DHT22;17777;48.770;8.944;2024-01-30T14:12:49;16.70;46.40
31129;DHT22;17777;48.770;8.944;2024-01-30T14:15:15;16.70;46.40
31129;DHT22;17777;48.770;8.944;2024-01-30T14:17:43;16.70;46.40
31129;DHT22;17777;48.770;8.944;2024-01-30T14:20:10;16.70;46.20
31129;DHT22;17777;48.770;8.944;2024-01-30T14:22:36;16.70;46.40
31129;DHT22;17777;48.770;8.944;2024-01-30T14:25:03;16.70;46.40
31129;DHT22;17777;48.770;8.944;2024-01-30T14:27:30;16.70;46.40
31129;DHT22;17777;48.770;8.944;2024-01-30T14:29:56;16.70;46.50
31129;DHT22;17777;48.770;8.944;2024-01-30T14:32:23;16.70;47.10
31129;DHT22;17777;48.770;8.944;2024-01-30T14:34:52;16.70;46.40
31129;DHT22;17777;48.770;8.944;2024-01-30T14:37:19;16.70;46.30
31129;DHT22;17777;48.770;8.944;2024-01-30T14:39:46;16.70;46.30
31129;DHT22;17777;48.770;8.944;2024-01-30T14:42:13;16.70;46.30
31129;DHT22;17777;48.770;8.944;2024-01-30T14:44:39;16.70;46.30
31129;DHT22;17777;48.770;8.944;2024-01-30T14:47:06;16.70;46.40
31129;DHT22;17777;48.770;8.944;2024-01-30T14:49:31;16.70;47.00
31129;DHT22;17777;48.770;8.944;2024-01-30T14:51:57;16.70;46.40
31129;DHT22;17777;48.770;8.944;2024-01-30T14:54:26;16.70;46.40
31129;DHT22;17777;48.770;8.944;2024-01-30T14:56:53;16.70;46.40
31129;DHT22;17777;48.770;8.944;2024-01-30T14:59:19;16.70;46.50
31129;DHT22;17777;48.770;8.944;2024-01-30T15:01:45;16.70;46.50
31129;DHT22;17777;48.770;8.944;2024-01-30T15:04:11;16.70;46.50
31129;DHT22;17777;48.770;8.944;2024-01-30T15:06:37;16.70;46.50
31129;DHT22;17777;48.770;8.944;2024-01-30T15:09:03;16.70;46.60
31129;DHT22;17777;48.770;8.944;2024-01-30T15:11:29;16.70;46.70
31129;DHT22;17777;48.770;8.944;2024-01-30T15:13:56;16.70;46.70
31129;DHT22;17777;48.770;8.944;2024-01-30T15:16:21;16.60;46.60
31129;DHT22;17777;48.770;8.944;2024-01-30T15:18:47;16.60;46.50
31129;DHT22;17777;48.770;8.944;2024-01-30T15:21:13;16.60;46.50
31129;DHT22;17777;48.770;8.944;2024-01-30T15:23:39;16.60;46.50
31129;DHT22;17777;48.770;8.944;2024-01-30T15:26:05;16.60;46.40
31129;DHT22;17777;48.770;8.944;2024-01-30T15:28:37;16.60;46.40
31129;DHT22;17777;48.770;8.944;2024-01-30T15:31:05;16.50;46.30
31129;DHT22;17777;48.770;8.944;2024-01-30T15:33:31;16.50;46.40
31129;DHT22;17777;48.770;8.944;2024-01-30T15:35:59;16.50;46.40
31129;DHT22;17777;48.770;8.944;2024-01-30T15:38:26;16.50;46.40
31129;DHT22;17777;48.770;8.944;2024-01-30T15:40:53;16.50;46.40
31129;DHT22;17777;48.770;8.944;2024-01-30T15:43:19;16.40;46.20
31129;DHT22;17777;48.770;8.944;2024-01-30T15:45:44;16.40;46.20
31129;DHT22;17777;48.770;8.944;2024-01-30T15:48:10;16.40;46.20
31129;DHT22;17777;48.770;8.944;2024-01-30T15:50:36;16.40;46.30